Time;durP1;ratioP1;P1;durP2;ratioP2;P2;SDS_P1;SDS_P2;PMS_P1;PMS_P2;Temp;Humidity;BMP_temperature;BMP_pressure;BME280_temperature;BME280_humidity;BME280_pressure;Samples;Min_cycle;Max_cycle;Signal;HPM_P1;HPM_P2
2022/09/17 00:01:21;;;;;;;;;;;24.20;44.10;;;;;;1573794;74;1934;-68
2022/09/17 00:03:23;;;;;;;;;;;24.20;44.40;;;;;;1575928;75;750;-68
2022/09/17 00:05:25;;;;;;;;;;;24.20;44.30;;;;;;1579979;75;832;-67
2022/09/17 00:07:27;;;;;;;;;;;24.10;44.40;;;;;;1581433;74;727;-67
2022/09/17 00:09:30;;;;;;;;;;;24.00;44.50;;;;;;1584509;74;733;-69
2022/09/17 00:11:32;;;;;;;;;;;24.00;44.40;;;;;;1576008;74;1134;-67
2022/09/17 00:13:34;;;;;;;;;;;24.00;44.60;;;;;;1570823;75;1598;-67
2022/09/17 00:15:40;;;;;;;;;;;24.00;44.60;;;;;;1546146;75;712;-67
2022/09/17 00:17:42;;;;;;;;;;;24.00;44.80;;;;;;1576949;73;732;-67
2022/09/17 00:19:43;;;;;;;;;;;24.00;44.80;;;;;;1581468;74;744;-69
2022/09/17 00:21:46;;;;;;;;;;;24.00;44.80;;;;;;1576512;74;1939;-70
2022/09/17 00:23:48;;;;;;;;;;;24.00;44.90;;;;;;1584056;74;750;-68
2022/09/17 00:25:50;;;;;;;;;;;24.00;45.00;;;;;;1574235;74;711;-68
2022/09/17 00:27:51;;;;;;;;;;;24.00;45.00;;;;;;1581138;74;1555;-68
2022/09/17 00:29:53;;;;;;;;;;;24.00;45.00;;;;;;1584410;73;792;-66
2022/09/17 00:31:55;;;;;;;;;;;24.00;45.00;;;;;;1584568;73;1144;-66
2022/09/17 00:34:00;;;;;;;;;;;24.00;45.10;;;;;;1581357;73;741;-66
2022/09/17 00:36:02;;;;;;;;;;;24.00;45.10;;;;;;1584842;73;797;-68
2022/09/17 00:38:04;;;;;;;;;;;24.00;45.10;;;;;;1582428;73;755;-67
2022/09/17 00:40:06;;;;;;;;;;;24.00;45.10;;;;;;1582321;74;752;-67
2022/09/17 00:42:09;;;;;;;;;;;24.10;45.20;;;;;;1564318;74;1078;-69
2022/09/17 00:44:29;;;;;;;;;;;24.10;45.20;;;;;;1581394;73;765;-67
2022/09/17 00:46:41;;;;;;;;;;;24.00;45.10;;;;;;1549633;75;728;-67
2022/09/17 00:48:44;;;;;;;;;;;24.10;45.20;;;;;;1586041;74;685;-69
2022/09/17 00:50:45;;;;;;;;;;;24.00;45.10;;;;;;1586542;74;716;-67
2022/09/17 00:52:49;;;;;;;;;;;24.10;45.20;;;;;;1568423;75;1133;-68
2022/09/17 00:54:52;;;;;;;;;;;24.10;45.20;;;;;;1574498;75;1815;-65
2022/09/17 00:56:55;;;;;;;;;;;24.00;45.10;;;;;;1579255;73;691;-68
2022/09/17 00:58:57;;;;;;;;;;;24.00;45.10;;;;;;1578078;73;841;-67
2022/09/17 01:00:59;;;;;;;;;;;24.00;45.20;;;;;;1583167;74;1943;-67
2022/09/17 01:03:01;;;;;;;;;;;24.10;45.40;;;;;;1536836;75;1174;-67
2022/09/17 01:05:03;;;;;;;;;;;24.10;45.20;;;;;;1559549;74;691;-67
2022/09/17 01:07:21;;;;;;;;;;;24.10;45.20;;;;;;1566313;74;585;-67
2022/09/17 01:09:34;;;;;;;;;;;24.20;45.20;;;;;;1561193;74;1773;-66
2022/09/17 01:11:56;;;;;;;;;;;24.20;45.20;;;;;;1569551;75;1128;-66
2022/09/17 01:14:16;;;;;;;;;;;24.20;45.20;;;;;;1530206;77;994;-66
2022/09/17 01:16:19;;;;;;;;;;;24.20;45.10;;;;;;1534046;77;687;-67
2022/09/17 01:18:28;;;;;;;;;;;24.20;45.20;;;;;;1532852;77;752;-67
2022/09/17 01:20:35;;;;;;;;;;;24.30;45.30;;;;;;1558831;74;1958;-66
2022/09/17 01:22:45;;;;;;;;;;;24.20;45.20;;;;;;1553988;74;1913;-66
2022/09/17 01:25:01;;;;;;;;;;;24.20;45.20;;;;;;1557313;76;1925;-66
2022/09/17 01:27:19;;;;;;;;;;;24.20;45.10;;;;;;1566039;74;1961;-66
2022/09/17 01:29:26;;;;;;;;;;;24.40;45.10;;;;;;1561089;74;689;-66
2022/09/17 01:31:35;;;;;;;;;;;24.30;45.00;;;;;;1559885;75;1248;-66
2022/09/17 01:33:43;;;;;;;;;;;24.40;45.00;;;;;;1567256;76;713;-67
2022/09/17 01:35:46;;;;;;;;;;;24.30;44.90;;;;;;1559174;76;649;-66
2022/09/17 01:37:52;;;;;;;;;;;24.30;45.00;;;;;;1541197;75;1714;-67
2022/09/17 01:39:59;;;;;;;;;;;24.30;44.90;;;;;;1562487;75;733;-64
2022/09/17 01:42:09;;;;;;;;;;;24.30;45.00;;;;;;1562158;76;1910;-66
2022/09/17 01:44:19;;;;;;;;;;;24.40;44.90;;;;;;1558818;75;1059;-67
2022/09/17 01:46:22;;;;;;;;;;;24.30;44.80;;;;;;1568669;75;1073;-67
2022/09/17 01:48:26;;;;;;;;;;;24.30;44.90;;;;;;1552891;76;754;-67
2022/09/17 01:50:32;;;;;;;;;;;24.30;44.80;;;;;;1556439;75;1575;-66
2022/09/17 01:52:35;;;;;;;;;;;24.40;44.70;;;;;;1567126;74;1156;-67
2022/09/17 01:54:37;;;;;;;;;;;24.30;44.80;;;;;;1561777;74;770;-67
2022/09/17 01:56:40;;;;;;;;;;;24.40;44.90;;;;;;1536271;75;812;-67
2022/09/17 01:58:44;;;;;;;;;;;24.30;45.00;;;;;;1559567;74;813;-67
2022/09/17 02:00:48;;;;;;;;;;;24.40;45.00;;;;;;1551918;74;1939;-64
2022/09/17 02:03:03;;;;;;;;;;;24.30;45.10;;;;;;1559781;75;1168;-67
2022/09/17 02:05:05;;;;;;;;;;;24.30;45.10;;;;;;1553013;74;1604;-67
2022/09/17 02:07:08;;;;;;;;;;;24.30;45.10;;;;;;1559274;75;744;-67
2022/09/17 02:09:17;;;;;;;;;;;24.40;45.20;;;;;;1549086;76;715;-68
2022/09/17 02:11:19;;;;;;;;;;;24.30;45.20;;;;;;1569187;75;861;-67
2022/09/17 02:13:31;;;;;;;;;;;24.30;45.30;;;;;;1555987;76;1137;-67
2022/09/17 02:15:34;;;;;;;;;;;24.30;45.40;;;;;;1542367;74;1672;-67
2022/09/17 02:17:38;;;;;;;;;;;24.20;45.20;;;;;;1567032;74;733;-67
2022/09/17 02:19:40;;;;;;;;;;;24.30;45.20;;;;;;1558607;74;1485;-67
2022/09/17 02:21:55;;;;;;;;;;;24.30;45.10;;;;;;1560445;74;1922;-67
2022/09/17 02:24:02;;;;;;;;;;;24.30;45.00;;;;;;1560770;76;1167;-71
2022/09/17 02:26:06;;;;;;;;;;;24.30;44.80;;;;;;1564417;75;2146;-67
2022/09/17 02:28:09;;;;;;;;;;;24.40;44.90;;;;;;1553934;75;732;-67
2022/09/17 02:30:11;;;;;;;;;;;24.30;44.90;;;;;;1570035;74;785;-69
2022/09/17 02:32:13;;;;;;;;;;;24.30;44.90;;;;;;1565590;74;1090;-69
2022/09/17 02:34:15;;;;;;;;;;;24.20;44.80;;;;;;1550693;76;1726;-68
2022/09/17 02:36:17;;;;;;;;;;;24.30;45.00;;;;;;1562821;74;735;-67
2022/09/17 02:38:25;;;;;;;;;;;24.30;45.10;;;;;;1568006;74;764;-68
2022/09/17 02:40:29;;;;;;;;;;;24.30;45.10;;;;;;1558463;74;723;-68
2022/09/17 02:42:38;;;;;;;;;;;24.30;45.00;;;;;;1563330;74;1914;-68
2022/09/17 02:44:58;;;;;;;;;;;24.30;44.90;;;;;;1557344;75;694;-68
2022/09/17 02:47:19;;;;;;;;;;;24.30;45.00;;;;;;1553956;74;1516;-68
2022/09/17 02:49:26;;;;;;;;;;;24.30;45.00;;;;;;1562154;75;851;-65
2022/09/17 02:51:29;;;;;;;;;;;24.30;45.00;;;;;;1553105;76;1147;-65
2022/09/17 02:53:37;;;;;;;;;;;24.20;45.00;;;;;;1561302;75;1128;-70
2022/09/17 02:55:43;;;;;;;;;;;24.30;45.20;;;;;;1565872;74;676;-67
2022/09/17 02:57:46;;;;;;;;;;;24.30;45.10;;;;;;1557613;74;859;-66
2022/09/17 03:00:05;;;;;;;;;;;24.20;44.90;;;;;;1573821;74;740;-65
2022/09/17 03:02:09;;;;;;;;;;;24.20;45.00;;;;;;1573298;74;1964;-64
2022/09/17 03:04:12;;;;;;;;;;;24.00;45.00;;;;;;1570338;74;704;-65
2022/09/17 03:06:13;;;;;;;;;;;24.10;45.20;;;;;;1577436;74;726;-64
2022/09/17 03:08:17;;;;;;;;;;;24.10;45.30;;;;;;1577523;74;732;-64
2022/09/17 03:10:19;;;;;;;;;;;24.00;45.20;;;;;;1560507;75;772;-65
2022/09/17 03:12:23;;;;;;;;;;;24.10;45.40;;;;;;1561196;76;1155;-64
2022/09/17 03:14:24;;;;;;;;;;;24.00;45.30;;;;;;1555745;74;1694;-64
2022/09/17 03:16:26;;;;;;;;;;;24.00;45.30;;;;;;1561929;76;1570;-63
2022/09/17 03:18:28;;;;;;;;;;;24.10;45.50;;;;;;1551827;75;779;-63
2022/09/17 03:20:30;;;;;;;;;;;24.00;45.40;;;;;;1557937;74;733;-64
2022/09/17 03:22:32;;;;;;;;;;;24.00;45.40;;;;;;1567473;76;1952;-63
2022/09/17 03:24:33;;;;;;;;;;;24.00;45.40;;;;;;1563705;74;811;-65
2022/09/17 03:26:35;;;;;;;;;;;24.00;45.40;;;;;;1566250;74;775;-63
2022/09/17 03:28:37;;;;;;;;;;;24.00;45.40;;;;;;1565356;74;970;-65
2022/09/17 03:30:39;;;;;;;;;;;23.90;45.50;;;;;;1560191;74;1571;-65
2022/09/17 03:32:41;;;;;;;;;;;24.00;45.50;;;;;;1553115;75;1142;-62
2022/09/17 03:34:43;;;;;;;;;;;24.00;45.50;;;;;;1564510;75;720;-64
2022/09/17 03:36:45;;;;;;;;;;;24.00;45.60;;;;;;1571884;74;672;-64
2022/09/17 03:38:47;;;;;;;;;;;24.00;45.50;;;;;;1563745;76;794;-63
2022/09/17 03:41:01;;;;;;;;;;;24.00;45.50;;;;;;1569546;74;803;-65
2022/09/17 03:43:03;;;;;;;;;;;24.00;45.50;;;;;;1556181;76;1929;-63
2022/09/17 03:45:05;;;;;;;;;;;24.00;45.50;;;;;;1565490;75;743;-64
2022/09/17 03:47:07;;;;;;;;;;;24.00;45.60;;;;;;1579713;73;789;-64
2022/09/17 03:49:09;;;;;;;;;;;24.00;45.60;;;;;;1545592;75;676;-63
2022/09/17 03:51:11;;;;;;;;;;;24.00;45.50;;;;;;1549858;75;809;-63
2022/09/17 03:53:13;;;;;;;;;;;24.00;45.60;;;;;;1538983;76;1082;-62
2022/09/17 03:55:16;;;;;;;;;;;24.00;45.70;;;;;;1566487;75;687;-63
2022/09/17 03:57:18;;;;;;;;;;;24.00;45.60;;;;;;1580122;75;1500;-63
2022/09/17 03:59:19;;;;;;;;;;;24.00;45.60;;;;;;1573982;75;799;-63
2022/09/17 04:01:21;;;;;;;;;;;24.00;45.50;;;;;;1572734;74;1942;-63
2022/09/17 04:03:25;;;;;;;;;;;24.00;45.50;;;;;;1581297;75;793;-63
2022/09/17 04:05:27;;;;;;;;;;;24.00;45.60;;;;;;1583704;74;1655;-64
2022/09/17 04:07:28;;;;;;;;;;;24.00;45.60;;;;;;1549794;75;801;-63
2022/09/17 04:09:30;;;;;;;;;;;24.00;45.60;;;;;;1550254;75;765;-64
2022/09/17 04:11:32;;;;;;;;;;;24.00;45.60;;;;;;1555813;75;1556;-63
2022/09/17 04:13:34;;;;;;;;;;;24.00;45.60;;;;;;1564480;74;708;-64
2022/09/17 04:15:36;;;;;;;;;;;24.00;45.60;;;;;;1555756;74;759;-64
2022/09/17 04:17:38;;;;;;;;;;;24.00;45.70;;;;;;1560181;74;664;-63
2022/09/17 04:19:40;;;;;;;;;;;24.00;45.70;;;;;;1569944;75;748;-63
2022/09/17 04:21:42;;;;;;;;;;;24.00;45.70;;;;;;1569738;75;1955;-70
2022/09/17 04:23:44;;;;;;;;;;;24.00;45.90;;;;;;1567141;74;751;-69
2022/09/17 04:25:46;;;;;;;;;;;24.10;45.80;;;;;;1565208;76;1533;-64
2022/09/17 04:27:48;;;;;;;;;;;24.20;45.60;;;;;;1569459;74;721;-68
2022/09/17 04:29:49;;;;;;;;;;;24.20;45.60;;;;;;1571620;74;825;-68
2022/09/17 04:31:51;;;;;;;;;;;24.20;45.60;;;;;;1558291;74;1158;-67
2022/09/17 04:33:54;;;;;;;;;;;24.20;45.60;;;;;;1560431;76;877;-69
2022/09/17 04:35:55;;;;;;;;;;;24.30;45.80;;;;;;1568436;74;758;-68
2022/09/17 04:37:57;;;;;;;;;;;24.20;45.60;;;;;;1556319;76;706;-69
2022/09/17 04:39:59;;;;;;;;;;;24.30;45.50;;;;;;1563458;76;1545;-70
2022/09/17 04:42:01;;;;;;;;;;;24.20;45.40;;;;;;1563732;75;1936;-68
2022/09/17 04:44:03;;;;;;;;;;;24.30;45.50;;;;;;1557290;75;773;-66
2022/09/17 04:46:05;;;;;;;;;;;24.30;45.50;;;;;;1568302;76;722;-65
2022/09/17 04:48:07;;;;;;;;;;;24.40;45.40;;;;;;1561732;75;813;-68
2022/09/17 04:50:09;;;;;;;;;;;24.40;45.50;;;;;;1561823;74;769;-68
2022/09/17 04:52:11;;;;;;;;;;;24.40;45.30;;;;;;1557368;75;1136;-66
2022/09/17 04:54:13;;;;;;;;;;;24.40;45.40;;;;;;1565511;74;1525;-68
2022/09/17 04:56:15;;;;;;;;;;;24.40;45.20;;;;;;1564454;76;781;-67
2022/09/17 04:58:17;;;;;;;;;;;24.50;45.30;;;;;;1551583;75;646;-69
2022/09/17 05:00:20;;;;;;;;;;;24.40;45.30;;;;;;1552648;75;785;-72
2022/09/17 05:02:22;;;;;;;;;;;24.30;45.30;;;;;;1564421;75;1946;-67
2022/09/17 05:04:24;;;;;;;;;;;24.50;45.30;;;;;;1563888;74;799;-68
2022/09/17 05:06:26;;;;;;;;;;;24.50;45.30;;;;;;1571261;74;773;-69
2022/09/17 05:08:28;;;;;;;;;;;24.50;45.40;;;;;;1554737;74;1598;-68
2022/09/17 05:10:29;;;;;;;;;;;24.50;45.20;;;;;;1567254;75;788;-68
2022/09/17 05:12:31;;;;;;;;;;;24.50;45.30;;;;;;1552760;75;1153;-65
2022/09/17 05:14:33;;;;;;;;;;;24.50;45.40;;;;;;1551066;75;751;-68
2022/09/17 05:16:35;;;;;;;;;;;24.50;45.40;;;;;;1558442;76;749;-70
2022/09/17 05:18:37;;;;;;;;;;;24.50;45.40;;;;;;1561581;75;734;-67
2022/09/17 05:20:39;;;;;;;;;;;24.50;45.40;;;;;;1563109;74;671;-68
2022/09/17 05:22:42;;;;;;;;;;;24.50;45.40;;;;;;1567661;73;3043;-65
2022/09/17 05:24:43;;;;;;;;;;;24.50;45.20;;;;;;1562104;75;660;-65
2022/09/17 05:26:45;;;;;;;;;;;24.50;45.20;;;;;;1554449;75;702;-65
2022/09/17 05:28:47;;;;;;;;;;;24.50;45.30;;;;;;1551989;75;790;-65
2022/09/17 05:30:49;;;;;;;;;;;24.50;45.20;;;;;;1547125;75;661;-65
2022/09/17 05:32:53;;;;;;;;;;;24.50;45.20;;;;;;1556963;75;1202;-64
2022/09/17 05:34:55;;;;;;;;;;;24.50;45.20;;;;;;1532325;76;1862;-64
2022/09/17 05:36:57;;;;;;;;;;;24.50;45.40;;;;;;1543564;76;1536;-65
2022/09/17 05:38:58;;;;;;;;;;;24.50;45.40;;;;;;1530496;75;713;-64
2022/09/17 05:41:02;;;;;;;;;;;24.50;45.30;;;;;;1507105;77;749;-65
2022/09/17 05:43:04;;;;;;;;;;;24.50;45.30;;;;;;1534547;75;1936;-64
2022/09/17 05:45:07;;;;;;;;;;;24.50;45.40;;;;;;1542282;76;705;-66
2022/09/17 05:47:08;;;;;;;;;;;24.50;45.50;;;;;;1538270;75;808;-64
2022/09/17 05:49:10;;;;;;;;;;;24.60;45.50;;;;;;1551369;75;786;-65
2022/09/17 05:51:12;;;;;;;;;;;24.60;45.40;;;;;;1549482;75;1537;-64
2022/09/17 05:53:14;;;;;;;;;;;24.60;45.30;;;;;;1546915;75;1154;-64
2022/09/17 05:55:17;;;;;;;;;;;24.50;45.40;;;;;;1544640;77;731;-65
2022/09/17 05:57:19;;;;;;;;;;;24.60;45.30;;;;;;1546463;75;792;-64
2022/09/17 05:59:21;;;;;;;;;;;24.70;45.40;;;;;;1537579;76;806;-65
2022/09/17 06:01:23;;;;;;;;;;;24.50;45.40;;;;;;1539593;76;738;-64
2022/09/17 06:03:25;;;;;;;;;;;24.60;45.50;;;;;;1546492;75;1949;-65
2022/09/17 06:05:27;;;;;;;;;;;24.60;45.50;;;;;;1545352;77;1585;-64
2022/09/17 06:07:28;;;;;;;;;;;24.60;45.40;;;;;;1538594;75;669;-65
2022/09/17 06:09:30;;;;;;;;;;;24.60;45.40;;;;;;1536235;77;805;-65
2022/09/17 06:11:32;;;;;;;;;;;24.60;45.40;;;;;;1538210;75;757;-65
2022/09/17 06:13:34;;;;;;;;;;;24.50;45.40;;;;;;1544981;75;1159;-64
2022/09/17 06:15:36;;;;;;;;;;;24.60;45.40;;;;;;1539570;77;718;-65
2022/09/17 06:17:38;;;;;;;;;;;24.70;45.40;;;;;;1533718;75;753;-67
2022/09/17 06:19:40;;;;;;;;;;;24.60;45.20;;;;;;1546998;75;748;-65
2022/09/17 06:21:42;;;;;;;;;;;24.60;45.20;;;;;;1550547;75;789;-66
2022/09/17 06:23:44;;;;;;;;;;;24.60;45.20;;;;;;1536506;75;1937;-65
2022/09/17 06:25:54;;;;;;;;;;;24.60;45.30;;;;;;1542852;75;731;-66
2022/09/17 06:27:55;;;;;;;;;;;24.50;45.40;;;;;;1536419;75;814;-64
2022/09/17 06:29:57;;;;;;;;;;;24.50;45.50;;;;;;1528453;75;775;-65
2022/09/17 06:32:01;;;;;;;;;;;24.50;45.40;;;;;;1545240;75;1310;-61
2022/09/17 06:34:04;;;;;;;;;;;24.50;45.40;;;;;;1544198;77;787;-64
2022/09/17 06:36:07;;;;;;;;;;;24.60;45.40;;;;;;1541809;75;899;-65
2022/09/17 06:38:09;;;;;;;;;;;24.50;45.40;;;;;;1537750;75;778;-65
2022/09/17 06:40:10;;;;;;;;;;;24.50;45.40;;;;;;1539081;77;796;-65
2022/09/17 06:42:12;;;;;;;;;;;24.40;45.40;;;;;;1534290;76;1160;-65
2022/09/17 06:44:15;;;;;;;;;;;24.30;45.50;;;;;;1541060;77;733;-64
2022/09/17 06:46:17;;;;;;;;;;;24.30;45.60;;;;;;1542790;75;1556;-65
2022/09/17 06:48:19;;;;;;;;;;;24.20;45.50;;;;;;1549001;75;724;-65
2022/09/17 06:50:21;;;;;;;;;;;24.20;45.50;;;;;;1538935;77;783;-65
2022/09/17 06:52:23;;;;;;;;;;;24.20;45.50;;;;;;1540885;75;1156;-65
2022/09/17 06:54:25;;;;;;;;;;;24.10;45.50;;;;;;1541818;77;698;-65
2022/09/17 06:56:27;;;;;;;;;;;24.20;45.40;;;;;;1546001;75;774;-65
2022/09/17 06:58:28;;;;;;;;;;;24.20;45.30;;;;;;1547768;75;688;-66
2022/09/17 07:00:30;;;;;;;;;;;24.10;45.30;;;;;;1546991;75;1326;-67
2022/09/17 07:02:32;;;;;;;;;;;24.00;45.20;;;;;;1545001;75;1948;-64
2022/09/17 07:04:34;;;;;;;;;;;24.00;45.10;;;;;;1548990;75;735;-65
2022/09/17 07:06:36;;;;;;;;;;;24.10;45.20;;;;;;1544379;75;834;-65
2022/09/17 07:08:38;;;;;;;;;;;24.00;45.10;;;;;;1545434;75;742;-65
2022/09/17 07:10:40;;;;;;;;;;;24.00;45.10;;;;;;1541409;75;773;-65
2022/09/17 07:12:42;;;;;;;;;;;24.00;45.00;;;;;;1542887;75;1190;-64
2022/09/17 07:14:44;;;;;;;;;;;24.00;45.00;;;;;;1545480;75;1570;-66
2022/09/17 07:16:45;;;;;;;;;;;23.90;44.90;;;;;;1547622;75;678;-65
2022/09/17 07:18:47;;;;;;;;;;;24.00;44.80;;;;;;1548800;75;767;-63
2022/09/17 07:20:54;;;;;;;;;;;23.90;44.90;;;;;;1549208;75;784;-65
2022/09/17 07:22:56;;;;;;;;;;;24.00;44.80;;;;;;1549516;75;1943;-65
2022/09/17 07:24:58;;;;;;;;;;;23.90;44.70;;;;;;1546351;75;772;-65
2022/09/17 07:27:00;;;;;;;;;;;23.90;44.70;;;;;;1546042;75;735;-64
2022/09/17 07:29:02;;;;;;;;;;;23.80;44.60;;;;;;1544642;75;1551;-64
2022/09/17 07:31:04;;;;;;;;;;;23.90;44.60;;;;;;1545244;75;720;-65
2022/09/17 07:33:06;;;;;;;;;;;23.90;44.50;;;;;;1548706;75;1168;-64
2022/09/17 07:35:08;;;;;;;;;;;23.90;44.40;;;;;;1547701;75;735;-65
2022/09/17 07:37:10;;;;;;;;;;;23.80;44.30;;;;;;1545623;75;726;-64
2022/09/17 07:39:12;;;;;;;;;;;23.90;44.20;;;;;;1551089;75;706;-64
2022/09/17 07:41:16;;;;;;;;;;;23.80;44.00;;;;;;1548074;75;694;-71
2022/09/17 07:43:17;;;;;;;;;;;23.90;44.10;;;;;;1545375;75;1948;-65
2022/09/17 07:45:19;;;;;;;;;;;23.90;44.20;;;;;;1543921;75;664;-65
2022/09/17 07:47:21;;;;;;;;;;;24.00;44.30;;;;;;1539349;76;702;-65
2022/09/17 07:49:23;;;;;;;;;;;24.00;44.20;;;;;;1539614;76;735;-65
2022/09/17 07:51:27;;;;;;;;;;;24.20;44.20;;;;;;1538109;76;746;-65
2022/09/17 07:53:29;;;;;;;;;;;24.20;44.10;;;;;;1539139;76;1163;-65
2022/09/17 07:55:31;;;;;;;;;;;24.20;44.10;;;;;;1534789;76;809;-67
2022/09/17 07:57:33;;;;;;;;;;;24.20;44.20;;;;;;1539388;76;1515;-66
2022/09/17 07:59:35;;;;;;;;;;;24.20;44.70;;;;;;1542679;76;817;-65
2022/09/17 08:01:37;;;;;;;;;;;24.20;45.10;;;;;;1547289;75;778;-65
2022/09/17 08:03:39;;;;;;;;;;;24.10;45.20;;;;;;1536300;76;1947;-65
2022/09/17 08:05:41;;;;;;;;;;;24.10;45.50;;;;;;1536455;77;724;-65
2022/09/17 08:07:43;;;;;;;;;;;24.10;45.60;;;;;;1536143;77;777;-63
2022/09/17 08:09:44;;;;;;;;;;;24.00;45.50;;;;;;1537669;76;762;-65
2022/09/17 08:11:46;;;;;;;;;;;24.10;45.70;;;;;;1538497;76;1554;-65
2022/09/17 08:13:48;;;;;;;;;;;24.10;46.00;;;;;;1540680;76;762;-66
2022/09/17 08:15:50;;;;;;;;;;;24.20;46.10;;;;;;1535872;77;741;-66
2022/09/17 08:17:52;;;;;;;;;;;24.20;46.20;;;;;;1537030;76;778;-64
2022/09/17 08:19:54;;;;;;;;;;;24.20;46.20;;;;;;1539441;76;869;-64
2022/09/17 08:21:56;;;;;;;;;;;24.20;46.30;;;;;;1537587;77;1168;-64
2022/09/17 08:23:58;;;;;;;;;;;24.20;46.20;;;;;;1536938;76;1934;-64
2022/09/17 08:26:00;;;;;;;;;;;24.20;46.30;;;;;;1538543;76;1561;-64
2022/09/17 08:28:02;;;;;;;;;;;24.30;46.50;;;;;;1538538;76;702;-65
2022/09/17 08:30:04;;;;;;;;;;;24.20;46.30;;;;;;1536870;76;719;-67
2022/09/17 08:32:06;;;;;;;;;;;24.30;46.00;;;;;;1538119;76;1157;-66
2022/09/17 08:34:08;;;;;;;;;;;24.30;45.80;;;;;;1536657;76;624;-66
2022/09/17 08:36:11;;;;;;;;;;;24.30;45.70;;;;;;1536893;77;732;-65
2022/09/17 08:38:13;;;;;;;;;;;24.30;45.50;;;;;;1535880;76;724;-66
2022/09/17 08:40:19;;;;;;;;;;;24.30;45.40;;;;;;1542245;76;1753;-64
2022/09/17 08:42:41;;;;;;;;;;;24.50;45.50;;;;;;1539030;76;1175;-65
2022/09/17 08:44:44;;;;;;;;;;;24.40;45.30;;;;;;1535412;76;1932;-66
2022/09/17 08:46:47;;;;;;;;;;;24.50;45.10;;;;;;1536148;76;759;-66
2022/09/17 08:48:50;;;;;;;;;;;24.50;45.00;;;;;;1533386;76;809;-67
2022/09/17 08:50:52;;;;;;;;;;;24.60;44.70;;;;;;1531067;77;750;-65
2022/09/17 08:52:57;;;;;;;;;;;24.80;44.20;;;;;;1536139;76;1527;-65
2022/09/17 08:55:16;;;;;;;;;;;24.90;43.60;;;;;;1546613;76;697;-66
2022/09/17 08:57:19;;;;;;;;;;;24.90;43.10;;;;;;1535585;75;797;-66
2022/09/17 08:59:22;;;;;;;;;;;24.90;42.70;;;;;;1534065;76;780;-64
2022/09/17 09:01:29;;;;;;;;;;;24.90;42.60;;;;;;1539585;76;727;-65
2022/09/17 09:03:49;;;;;;;;;;;24.80;42.30;;;;;;1532472;76;1956;-65
2022/09/17 09:05:55;;;;;;;;;;;24.80;41.70;;;;;;1536451;76;828;-65
2022/09/17 09:08:02;;;;;;;;;;;24.70;41.50;;;;;;1539681;77;1303;-67
2022/09/17 09:10:05;;;;;;;;;;;24.70;41.30;;;;;;1532030;77;588;-65
2022/09/17 09:12:08;;;;;;;;;;;24.60;41.10;;;;;;1540673;76;1185;-65
2022/09/17 09:14:21;;;;;;;;;;;24.70;41.00;;;;;;1525583;76;1802;-65
2022/09/17 09:16:25;;;;;;;;;;;24.70;40.80;;;;;;1542499;76;1950;-65
2022/09/17 09:18:29;;;;;;;;;;;24.60;40.30;;;;;;1535871;77;1696;-64
2022/09/17 09:20:32;;;;;;;;;;;24.60;40.10;;;;;;1540207;76;1582;-63
2022/09/17 09:22:42;;;;;;;;;;;24.50;39.80;;;;;;1541116;74;1115;-64
2022/09/17 09:24:48;;;;;;;;;;;24.50;39.70;;;;;;1545800;75;1935;-63
2022/09/17 09:26:51;;;;;;;;;;;24.50;39.50;;;;;;1546105;75;706;-65
2022/09/17 09:28:55;;;;;;;;;;;24.40;39.10;;;;;;1540322;76;748;-63
2022/09/17 09:31:04;;;;;;;;;;;24.30;39.00;;;;;;1542816;76;695;-64
2022/09/17 09:33:13;;;;;;;;;;;24.40;39.00;;;;;;1545993;75;1173;-63
2022/09/17 09:35:19;;;;;;;;;;;24.30;39.10;;;;;;1542150;76;1627;-64
2022/09/17 09:37:24;;;;;;;;;;;24.30;39.20;;;;;;1536523;76;751;-65
2022/09/17 09:39:28;;;;;;;;;;;24.30;39.40;;;;;;1543750;75;703;-63
2022/09/17 09:41:31;;;;;;;;;;;24.40;39.50;;;;;;1540536;76;696;-66
2022/09/17 09:43:37;;;;;;;;;;;24.30;39.50;;;;;;1543329;75;1927;-65
2022/09/17 09:45:56;;;;;;;;;;;24.30;39.60;;;;;;1549772;75;1941;-64
2022/09/17 09:48:05;;;;;;;;;;;24.20;39.60;;;;;;1545061;75;1737;-64
2022/09/17 09:50:18;;;;;;;;;;;24.30;39.90;;;;;;1538181;75;1571;-64
2022/09/17 09:52:25;;;;;;;;;;;24.30;40.00;;;;;;1538091;76;1141;-66
2022/09/17 09:54:34;;;;;;;;;;;24.30;40.00;;;;;;1539861;75;1956;-66
2022/09/17 09:56:38;;;;;;;;;;;24.30;40.10;;;;;;1549681;75;661;-67
2022/09/17 09:58:40;;;;;;;;;;;24.30;40.10;;;;;;1542651;76;1081;-65
2022/09/17 10:00:42;;;;;;;;;;;24.20;40.00;;;;;;1549655;76;785;-65
2022/09/17 10:02:44;;;;;;;;;;;24.30;40.20;;;;;;1536666;76;1579;-68
2022/09/17 10:04:46;;;;;;;;;;;24.20;40.10;;;;;;1542827;75;1931;-66
2022/09/17 10:06:49;;;;;;;;;;;24.20;40.20;;;;;;1542433;75;716;-65
2022/09/17 10:08:58;;;;;;;;;;;24.20;40.20;;;;;;1548202;75;680;-66
2022/09/17 10:11:01;;;;;;;;;;;24.20;40.30;;;;;;1544334;75;643;-66
2022/09/17 10:13:06;;;;;;;;;;;24.20;40.20;;;;;;1543631;75;1260;-66
2022/09/17 10:15:12;;;;;;;;;;;24.10;40.30;;;;;;1542343;76;937;-67
2022/09/17 10:17:19;;;;;;;;;;;24.10;40.30;;;;;;1530203;76;1964;-66
2022/09/17 10:19:24;;;;;;;;;;;24.10;40.40;;;;;;1547302;76;750;-66
2022/09/17 10:21:32;;;;;;;;;;;24.20;40.40;;;;;;1546324;75;1139;-66
2022/09/17 10:23:35;;;;;;;;;;;24.10;40.40;;;;;;1547063;75;1948;-65
2022/09/17 10:25:39;;;;;;;;;;;24.20;40.50;;;;;;1543958;76;812;-66
2022/09/17 10:27:42;;;;;;;;;;;24.20;40.40;;;;;;1541406;76;1992;-67
2022/09/17 10:29:44;;;;;;;;;;;24.20;40.40;;;;;;1543091;76;763;-66
2022/09/17 10:31:48;;;;;;;;;;;24.20;40.50;;;;;;1542551;76;1309;-68
2022/09/17 10:33:52;;;;;;;;;;;24.20;40.50;;;;;;1545763;76;1750;-66
2022/09/17 10:35:55;;;;;;;;;;;24.20;40.50;;;;;;1538477;76;1866;-66
2022/09/17 10:37:57;;;;;;;;;;;24.10;40.50;;;;;;1541704;76;637;-66
2022/09/17 10:39:58;;;;;;;;;;;24.20;40.50;;;;;;1544501;76;746;-66
2022/09/17 10:42:14;;;;;;;;;;;24.20;40.50;;;;;;1542347;76;1142;-66
2022/09/17 10:44:20;;;;;;;;;;;24.10;40.50;;;;;;1537054;75;1924;-66
2022/09/17 10:46:25;;;;;;;;;;;24.00;40.40;;;;;;1543226;75;1576;-68
2022/09/17 10:48:29;;;;;;;;;;;24.00;40.50;;;;;;1540371;75;1016;-66
2022/09/17 10:50:31;;;;;;;;;;;24.00;40.50;;;;;;1535765;76;727;-65
2022/09/17 10:52:41;;;;;;;;;;;24.00;40.50;;;;;;1544080;74;1076;-66
2022/09/17 10:54:53;;;;;;;;;;;24.00;40.60;;;;;;1542744;75;668;-68
2022/09/17 10:56:57;;;;;;;;;;;24.00;40.70;;;;;;1544188;75;2050;-66
2022/09/17 10:59:03;;;;;;;;;;;24.00;40.70;;;;;;1538745;76;1549;-66
2022/09/17 11:01:10;;;;;;;;;;;24.00;40.80;;;;;;1545830;76;2027;-66
2022/09/17 11:03:13;;;;;;;;;;;24.00;40.90;;;;;;1544929;76;1132;-66
2022/09/17 11:05:20;;;;;;;;;;;24.00;40.90;;;;;;1539673;76;1941;-68
2022/09/17 11:07:33;;;;;;;;;;;24.00;41.00;;;;;;1547321;76;769;-67
2022/09/17 11:09:36;;;;;;;;;;;24.00;41.00;;;;;;1494671;78;1060;-65
2022/09/17 11:11:56;;;;;;;;;;;24.00;41.00;;;;;;1536694;76;1967;-66
2022/09/17 11:14:00;;;;;;;;;;;24.00;41.10;;;;;;1541767;76;1518;-66
2022/09/17 11:16:20;;;;;;;;;;;23.90;41.10;;;;;;1540597;76;738;-66
2022/09/17 11:18:41;;;;;;;;;;;24.00;41.20;;;;;;1548806;76;683;-64
2022/09/17 11:20:45;;;;;;;;;;;24.00;41.20;;;;;;1540179;76;783;-66
2022/09/17 11:23:05;;;;;;;;;;;24.00;41.30;;;;;;1546952;72;2057;-71
2022/09/17 11:25:25;;;;;;;;;;;24.00;41.30;;;;;;1610450;73;1920;-72
2022/09/17 11:27:45;;;;;;;;;;;24.00;41.20;;;;;;1603304;73;1552;-71
2022/09/17 11:30:03;;;;;;;;;;;24.00;41.30;;;;;;1611377;73;1392;-71
2022/09/17 11:32:12;;;;;;;;;;;24.00;41.40;;;;;;1610842;73;885;-71
2022/09/17 11:34:31;;;;;;;;;;;24.00;41.50;;;;;;1624631;73;1410;-71
2022/09/17 11:36:35;;;;;;;;;;;24.00;41.50;;;;;;1623884;72;773;-72
2022/09/17 11:38:42;;;;;;;;;;;24.10;41.60;;;;;;1611638;72;1659;-71
2022/09/17 11:40:45;;;;;;;;;;;24.00;41.50;;;;;;1618584;72;1508;-71
2022/09/17 11:42:48;;;;;;;;;;;24.20;41.60;;;;;;1612774;72;1563;-67
2022/09/17 11:45:01;;;;;;;;;;;24.10;41.30;;;;;;1624633;73;1931;-73
2022/09/17 11:47:04;;;;;;;;;;;24.10;41.10;;;;;;1617772;73;1058;-71
2022/09/17 11:49:24;;;;;;;;;;;24.10;41.20;;;;;;1623705;72;1869;-71
2022/09/17 11:51:34;;;;;;;;;;;24.10;41.10;;;;;;1625759;72;702;-70
2022/09/17 11:53:37;;;;;;;;;;;24.00;40.90;;;;;;1613583;72;1142;-72
2022/09/17 11:55:43;;;;;;;;;;;24.10;41.00;;;;;;1624116;72;1443;-70
2022/09/17 11:57:45;;;;;;;;;;;24.10;41.10;;;;;;1620750;72;1479;-70
2022/09/17 11:59:54;;;;;;;;;;;24.10;41.20;;;;;;1631136;72;735;-70
2022/09/17 12:02:04;;;;;;;;;;;24.10;41.20;;;;;;1623154;72;747;-71
2022/09/17 12:04:07;;;;;;;;;;;24.00;41.10;;;;;;1617164;72;1929;-71
2022/09/17 12:06:11;;;;;;;;;;;24.10;41.30;;;;;;1601832;73;736;-69
2022/09/17 12:08:17;;;;;;;;;;;24.20;41.40;;;;;;1618727;73;567;-70
2022/09/17 12:10:33;;;;;;;;;;;24.20;41.50;;;;;;1609602;73;1595;-70
2022/09/17 12:12:35;;;;;;;;;;;24.10;41.50;;;;;;1625018;73;1212;-71
2022/09/17 12:14:39;;;;;;;;;;;24.20;41.60;;;;;;1580825;74;825;-71
2022/09/17 12:16:44;;;;;;;;;;;24.20;41.60;;;;;;1567727;74;754;-72
2022/09/17 12:18:47;;;;;;;;;;;24.20;41.50;;;;;;1600444;74;917;-73
2022/09/17 12:20:50;;;;;;;;;;;24.30;41.60;;;;;;1606588;74;758;-72
2022/09/17 12:22:52;;;;;;;;;;;24.30;41.70;;;;;;1606931;74;1131;-72